createdAt,value
2023-02-18T00:02:05.888Z,12.8
2023-02-18T00:08:06.493Z,12.9
2023-02-18T00:14:06.025Z,12.9
2023-02-18T00:20:07.078Z,12.9
2023-02-18T00:26:06.548Z,12.8
2023-02-18T00:32:05.477Z,12.7
2023-02-18T00:38:06.645Z,12.8
2023-02-18T00:44:06.447Z,12.8
2023-02-18T00:50:07.616Z,12.8
2023-02-18T00:56:06.484Z,12.9
2023-02-18T01:02:05.041Z,12.8
2023-02-18T01:08:06.733Z,12.8
2023-02-18T01:14:04.950Z,12.8
2023-02-18T01:20:07.627Z,12.9
2023-02-18T01:26:05.393Z,12.8
2023-02-18T01:32:08.498Z,12.7
2023-02-18T01:38:05.234Z,12.7
2023-02-18T01:44:05.930Z,12.6
2023-02-18T01:50:06.846Z,12.7
2023-02-18T01:56:05.840Z,12.6
2023-02-18T02:02:05.945Z,12.6
2023-02-18T02:08:05.903Z,12.7
2023-02-18T02:14:04.741Z,12.7
2023-02-18T02:20:05.630Z,12.7
2023-02-18T02:26:04.568Z,12.7
2023-02-18T02:32:04.613Z,12.7
2023-02-18T02:38:05.130Z,12.7
2023-02-18T02:44:04.684Z,12.7
2023-02-18T02:50:06.484Z,12.6
2023-02-18T02:56:04.989Z,12.6
2023-02-18T03:02:05.644Z,12.8
2023-02-18T03:08:04.694Z,12.9
2023-02-18T03:14:04.842Z,12.9
2023-02-18T03:20:05.805Z,12.9
2023-02-18T03:26:04.788Z,12.9
2023-02-18T03:32:05.497Z,12.9
2023-02-18T03:38:05.555Z,12.9
2023-02-18T03:44:05.588Z,12.8
2023-02-18T03:50:06.025Z,12.9
2023-02-18T03:56:05.839Z,12.8
2023-02-18T04:02:06.055Z,12.8
2023-02-18T04:08:05.685Z,12.8
2023-02-18T04:14:05.395Z,12.8
2023-02-18T04:20:08.050Z,12.9
2023-02-18T04:26:05.016Z,12.9
2023-02-18T04:32:06.261Z,12.9
2023-02-18T04:38:05.030Z,12.9
2023-02-18T04:44:05.504Z,12.9
2023-02-18T04:50:11.285Z,12.9
2023-02-18T04:56:05.998Z,12.9
2023-02-18T05:02:05.315Z,13
2023-02-18T05:08:07.113Z,12.9
2023-02-18T05:14:04.900Z,13
2023-02-18T05:20:09.789Z,12.9
2023-02-18T05:26:09.461Z,12.9
2023-02-18T05:32:05.810Z,12.9
2023-02-18T05:38:07.463Z,12.9
2023-02-18T05:44:06.753Z,12.9
2023-02-18T05:50:09.938Z,12.8
2023-02-18T05:56:07.339Z,12.8
2023-02-18T06:02:06.512Z,12.9
2023-02-18T06:08:07.831Z,12.7
2023-02-18T06:14:07.004Z,12.8
2023-02-18T06:20:07.308Z,12.7
2023-02-18T06:26:06.881Z,12.6
2023-02-18T06:32:06.470Z,12.7
2023-02-18T06:38:07.959Z,12.6
2023-02-18T06:44:07.213Z,12.7
2023-02-18T06:50:11.531Z,12.6
2023-02-18T06:56:06.994Z,12.7
2023-02-18T07:02:07.003Z,12.7
2023-02-18T07:08:06.563Z,12.5
2023-02-18T07:14:08.261Z,12.7
2023-02-18T07:20:08.810Z,12.7
2023-02-18T07:26:07.020Z,12.6
2023-02-18T07:32:07.351Z,12.6
2023-02-18T07:38:07.686Z,12.7
2023-02-18T07:44:08.033Z,12.6
2023-02-18T07:50:09.709Z,12.6
2023-02-18T07:56:07.742Z,12.7
2023-02-18T08:02:06.842Z,12.9
2023-02-18T08:08:07.513Z,12.9
2023-02-18T08:14:05.164Z,12.8
2023-02-18T08:20:11.106Z,12.9
2023-02-18T08:26:07.476Z,12.7
2023-02-18T08:32:06.639Z,12.4
2023-02-18T08:38:06.034Z,12.5
2023-02-18T08:44:07.284Z,12.4
2023-02-18T08:50:10.789Z,12.4
2023-02-18T08:56:06.742Z,12.4
2023-02-18T09:02:07.402Z,12.4
2023-02-18T09:08:07.280Z,12.4
2023-02-18T09:14:06.478Z,12.5
2023-02-18T09:20:16.694Z,12.4
2023-02-18T09:26:06.290Z,12.4
2023-02-18T09:32:06.884Z,12.4
2023-02-18T09:38:06.720Z,12.4
2023-02-18T09:44:08.440Z,12.5
2023-02-18T09:50:11.949Z,12.4
2023-02-18T09:56:06.401Z,12.4
2023-02-18T10:02:08.218Z,12.4
2023-02-18T10:08:07.467Z,12.4
2023-02-18T10:14:06.525Z,12.4
2023-02-18T10:20:10.476Z,12.4
2023-02-18T10:26:07.587Z,12.4
2023-02-18T10:32:05.904Z,12.5
2023-02-18T10:38:05.699Z,12.4
2023-02-18T10:44:04.715Z,12.4
2023-02-18T10:50:06.892Z,12.4
2023-02-18T10:56:06.022Z,12.4
2023-02-18T11:02:06.541Z,12.4
2023-02-18T11:08:06.707Z,12.4
2023-02-18T11:14:07.370Z,12.5
2023-02-18T11:20:08.567Z,12.4
2023-02-18T11:26:05.884Z,12.5
2023-02-18T11:32:06.944Z,12.5
2023-02-18T11:38:05.922Z,12.2
2023-02-18T11:44:06.713Z,12.2
2023-02-18T11:50:07.322Z,12.2
2023-02-18T11:56:05.872Z,12.4
2023-02-18T12:02:06.967Z,12.4
2023-02-18T12:08:05.416Z,12.2
2023-02-18T12:14:05.133Z,12.2
2023-02-18T12:20:06.090Z,12.1
2023-02-18T12:26:04.602Z,12
2023-02-18T12:50:05.338Z,12
2023-02-18T12:56:04.606Z,12
2023-02-18T13:02:04.756Z,12
2023-02-18T13:08:04.650Z,12.3
2023-02-18T13:14:04.849Z,12.4
2023-02-18T13:20:08.556Z,12.4
2023-02-18T13:26:07.536Z,12.4
2023-02-18T13:32:06.620Z,12.3
2023-02-18T13:44:05.623Z,12.3
2023-02-18T13:50:07.361Z,12.4
2023-02-18T13:56:06.579Z,12.4
2023-02-18T14:02:05.926Z,12.4
2023-02-18T14:11:04.742Z,12.4
2023-02-18T14:17:04.714Z,12.4
2023-02-18T14:23:04.628Z,12.4
2023-02-18T14:29:04.875Z,12.4
2023-02-18T14:35:06.530Z,12.4
2023-02-18T14:47:04.671Z,12.4
2023-02-18T14:53:05.112Z,12.5
2023-02-18T14:59:07.034Z,12.5
2023-02-18T15:05:10.753Z,12.4
2023-02-18T15:11:05.559Z,12.5
2023-02-18T15:17:06.315Z,12.5
2023-02-18T15:23:07.754Z,12.5
2023-02-18T15:29:05.884Z,12.4
2023-02-18T15:35:08.057Z,12.5
2023-02-18T15:41:05.701Z,12.4
2023-02-18T15:47:05.277Z,12.4
2023-02-18T15:53:05.504Z,12.4
2023-02-18T15:59:06.034Z,12.4
2023-02-18T16:05:07.805Z,12.3
2023-02-18T16:11:05.108Z,12.3
2023-02-18T16:17:05.985Z,12.3
2023-02-18T16:23:05.404Z,12.3
2023-02-18T16:29:05.357Z,12.2
2023-02-18T16:35:08.930Z,12.2
2023-02-18T16:41:06.003Z,12.4
2023-02-18T16:47:05.371Z,12.4
2023-02-18T16:53:05.436Z,12.3
2023-02-18T16:59:05.719Z,12.2
2023-02-18T17:05:11.892Z,12.2
2023-02-18T17:11:06.024Z,12.2
2023-02-18T17:17:05.751Z,12.2
2023-02-18T17:23:05.705Z,12.2
2023-02-18T17:29:05.184Z,12.2
2023-02-18T17:35:05.954Z,12.2
2023-02-18T17:41:05.443Z,12
2023-02-18T17:47:05.252Z,11.9
2023-02-18T17:53:05.284Z,11.9
2023-02-18T17:59:05.943Z,12
2023-02-18T18:05:07.438Z,11.9
2023-02-18T18:11:05.398Z,11.9
2023-02-18T18:17:05.322Z,11.9
2023-02-18T18:23:05.850Z,11.9
2023-02-18T18:29:05.070Z,11.9
2023-02-18T18:35:07.203Z,11.9
2023-02-18T18:41:05.598Z,11.9
2023-02-18T18:47:05.644Z,11.9
2023-02-18T18:53:05.540Z,12
2023-02-18T18:59:05.202Z,11.9
2023-02-18T19:05:07.090Z,11.9
2023-02-18T19:11:05.171Z,11.8
2023-02-18T19:17:05.295Z,11.9
2023-02-18T19:23:06.191Z,11.9
2023-02-18T19:29:05.502Z,12
2023-02-18T19:35:06.661Z,12
2023-02-18T19:41:05.627Z,12
2023-02-18T19:47:05.427Z,11.8
2023-02-18T19:53:05.297Z,11.9
2023-02-18T19:59:05.539Z,11.9
2023-02-18T20:05:07.750Z,12
2023-02-18T20:11:05.488Z,12
2023-02-18T20:17:05.246Z,11.9
2023-02-18T20:23:05.318Z,11.9
2023-02-18T20:29:06.320Z,12
2023-02-18T20:35:07.164Z,11.8
2023-02-18T20:41:05.195Z,11.8
2023-02-18T20:47:05.619Z,11.8
2023-02-18T20:53:05.313Z,11.8
2023-02-18T20:59:07.052Z,11.8
2023-02-18T21:05:08.481Z,11.9
2023-02-18T21:11:06.150Z,11.9
2023-02-18T21:17:07.314Z,12.1
2023-02-18T21:23:05.657Z,12.1
2023-02-18T21:29:05.313Z,11.9
2023-02-18T21:35:06.360Z,12
2023-02-18T21:41:05.983Z,11.9
2023-02-18T21:47:05.768Z,11.9
2023-02-18T21:53:06.093Z,11.9
2023-02-18T21:59:05.054Z,11.8
2023-02-18T22:05:06.294Z,11.7
2023-02-18T22:11:06.242Z,11.8
2023-02-18T22:17:05.703Z,11.7
2023-02-18T22:23:05.268Z,11.6
2023-02-18T22:29:05.233Z,11.6
2023-02-18T22:35:06.739Z,11.6
2023-02-18T22:41:06.016Z,11.5
2023-02-18T22:47:05.928Z,11.4
2023-02-18T22:53:06.208Z,11.4
2023-02-18T22:59:05.144Z,11.4
2023-02-18T23:05:08.417Z,11.4
2023-02-18T23:11:06.372Z,11.3
2023-02-18T23:17:05.354Z,11.4
2023-02-18T23:23:05.419Z,11.4
2023-02-18T23:29:05.055Z,11.4
2023-02-18T23:35:06.785Z,11.4
2023-02-18T23:41:05.141Z,11.5
2023-02-18T23:47:05.464Z,11.5
2023-02-18T23:53:05.642Z,11.4
2023-02-18T23:59:06.027Z,11.4
